Aeroporto :
LOGIN :

Iscrizione | Disclaimer

   EN    FR    IT 

 










Sommario :    VFR   VFR Marginale   IFR   IFR Intensivo   IFR Molto Intensivo
Visibilità : 
Base nubi : 
>= 8 km
>= 3000ft
5 / 8 km
1000 / 3000 ft
1500m / 5 km
500 / 1000 ft
800 / 1500m
200 / 500 ft
< 800m
< 200 ft
Simboli :   Temporali  Nebbia  Neve Forte  Precipitazioni Forti  Vento > 20 kt
SIGMETs :   Varie  Temporali  Ghiacco  Turbolenza  Onda orograficha  Ceneri Vulcaniche






- Altitudine del aeroporto : 1487 ft
- Codice IATA : MUC


EDDM - München Franz Josef Strauss

ULTIMO METAR :
  • 291020Z AUTO 10007KT 070V130 9999 -RA SCT018 10/07 Q1003 NOSIG

METARs OBSOLETI :
  • 290950Z AUTO 08005KT 050V110 9999 SCT017 10/07 Q1002 NOSIG
  • 290920Z AUTO 06005KT 010V110 9999 FEW019 10/07 Q1002 NOSIG
  • 290850Z AUTO 05005KT 020V080 9999 FEW011 10/07 Q1002 NOSIG
  • 290820Z AUTO 04003KT 010V080 9999 FEW017 10/07 Q1002 NOSIG
  • 290750Z AUTO VRB02KT 9999 FEW021 08/06 Q1002 BECMG 09005KT

TAF TAF EDDM
Valido dal 29 a 06 ore il 30 a 12 ore UTC


290500Z 2906/3012 VRB03KT 9999 FEW015 BKN040
BECMG 2906/2908 09005KT
BECMG 2916/2918 VRB03KT
TEMPO 3002/3006 4000 -DZ BR BKN006



MetMap, La meteo Aeronautica in un colpo d'occhio ! - Copyright ORBIFLY Dicembre 2007 - Disclaimer

ORBIFLY MET'MAP TEAM :

Programmazione e sviluppo : Alexandra Zaïnal
Concezione : Baudouin d'Aumeries
Supporto tecnico e logistico : Manuel Goepfert
Aiuto : Marc-Olivier Méhu
Aiuto per la traduzione : Arnaldo La Scala




FONTI E CREDITI :

   NOAA